sensor_id;sensor_type;location;lat;lon;timestamp;pressure;altitude;pressure_sealevel;temperature;humidity
69574;BME280;62840;52.366;5.980;2023-04-27T00:00:28;102043.97;;;1.82;66.09
69574;BME280;62840;52.366;5.980;2023-04-27T00:02:54;102044.13;;;1.76;66.18
69574;BME280;62840;52.366;5.980;2023-04-27T00:05:23;102038.97;;;1.73;66.37
69574;BME280;62840;52.366;5.980;2023-04-27T00:07:48;102047.84;;;1.69;66.03
69574;BME280;62840;52.366;5.980;2023-04-27T00:10:14;102044.38;;;1.67;66.18
69574;BME280;62840;52.366;5.980;2023-04-27T00:12:40;102047.97;;;1.63;66.38
69574;BME280;62840;52.366;5.980;2023-04-27T00:15:07;102051.59;;;1.59;66.19
69574;BME280;62840;52.366;5.980;2023-04-27T00:17:34;102051.69;;;1.56;66.45
69574;BME280;62840;52.366;5.980;2023-04-27T00:20:00;102056.09;;;1.54;66.22
69574;BME280;62840;52.366;5.980;2023-04-27T00:22:28;102050.94;;;1.50;66.27
69574;BME280;62840;52.366;5.980;2023-04-27T00:24:54;102057.16;;;1.46;66.51
69574;BME280;62840;52.366;5.980;2023-04-27T00:27:19;102053.72;;;1.44;66.37
69574;BME280;62840;52.366;5.980;2023-04-27T00:29:45;102060.78;;;1.42;66.25
69574;BME280;62840;52.366;5.980;2023-04-27T00:32:11;102053.84;;;1.38;66.38
69574;BME280;62840;52.366;5.980;2023-04-27T00:34:37;102052.16;;;1.37;66.37
69574;BME280;62840;52.366;5.980;2023-04-27T00:37:03;102055.66;;;1.36;66.62
69574;BME280;62840;52.366;5.980;2023-04-27T00:39:33;102054.81;;;1.36;66.33
69574;BME280;62840;52.366;5.980;2023-04-27T00:41:59;102051.31;;;1.35;66.40
69574;BME280;62840;52.366;5.980;2023-04-27T00:44:26;102061.00;;;1.33;66.40
69574;BME280;62840;52.366;5.980;2023-04-27T00:46:53;102056.69;;;1.31;66.45
69574;BME280;62840;52.366;5.980;2023-04-27T00:49:20;102058.47;;;1.28;66.65
69574;BME280;62840;52.366;5.980;2023-04-27T00:51:46;102060.31;;;1.25;66.68
69574;BME280;62840;52.366;5.980;2023-04-27T00:54:12;102047.25;;;1.22;66.55
69574;BME280;62840;52.366;5.980;2023-04-27T00:56:42;102040.28;;;1.21;66.79
69574;BME280;62840;52.366;5.980;2023-04-27T00:59:09;102041.19;;;1.18;66.52
69574;BME280;62840;52.366;5.980;2023-04-27T01:01:35;102043.88;;;1.17;66.73
69574;BME280;62840;52.366;5.980;2023-04-27T01:04:01;102043.88;;;1.17;66.73
69574;BME280;62840;52.366;5.980;2023-04-27T01:06:27;102050.94;;;1.15;66.93
69574;BME280;62840;52.366;5.980;2023-04-27T01:08:52;102057.13;;;1.12;66.83
69574;BME280;62840;52.366;5.980;2023-04-27T01:11:18;102059.78;;;1.11;66.87
69574;BME280;62840;52.366;5.980;2023-04-27T01:13:46;102054.63;;;1.07;66.86
69574;BME280;62840;52.366;5.980;2023-04-27T01:16:12;102053.78;;;1.05;66.66
69574;BME280;62840;52.366;5.980;2023-04-27T01:18:38;102060.75;;;1.06;66.87
69574;BME280;62840;52.366;5.980;2023-04-27T01:21:04;102052.88;;;1.06;66.75
69574;BME280;62840;52.366;5.980;2023-04-27T01:23:32;102054.66;;;1.04;66.98
69574;BME280;62840;52.366;5.980;2023-04-27T01:25:58;102051.22;;;1.02;67.05
69574;BME280;62840;52.366;5.980;2023-04-27T01:28:24;102055.69;;;0.99;67.13
69574;BME280;62840;52.366;5.980;2023-04-27T01:30:49;102051.38;;;0.96;67.01
69574;BME280;62840;52.366;5.980;2023-04-27T01:33:15;102062.84;;;0.92;66.90
69574;BME280;62840;52.366;5.980;2023-04-27T01:35:41;102059.38;;;0.90;66.90
69574;BME280;62840;52.366;5.980;2023-04-27T01:38:06;102052.38;;;0.91;67.06
69574;BME280;62840;52.366;5.980;2023-04-27T01:40:36;102062.00;;;0.90;67.14
69574;BME280;62840;52.366;5.980;2023-04-27T01:43:02;102066.47;;;0.86;67.23
69574;BME280;62840;52.366;5.980;2023-04-27T01:45:28;102063.88;;;0.85;67.33
69574;BME280;62840;52.366;5.980;2023-04-27T01:47:54;102063.88;;;0.85;67.16
69574;BME280;62840;52.366;5.980;2023-04-27T01:50:20;102067.41;;;0.84;67.28
69574;BME280;62840;52.366;5.980;2023-04-27T01:52:46;102070.94;;;0.83;67.11
69574;BME280;62840;52.366;5.980;2023-04-27T01:55:12;102063.94;;;0.82;67.27
69574;BME280;62840;52.366;5.980;2023-04-27T01:57:40;102069.19;;;0.82;66.93
69574;BME280;62840;52.366;5.980;2023-04-27T02:00:07;102063.09;;;0.81;66.99
69574;BME280;62840;52.366;5.980;2023-04-27T02:02:33;102056.13;;;0.80;67.20
69574;BME280;62840;52.366;5.980;2023-04-27T02:04:59;102056.13;;;0.79;66.99
69574;BME280;62840;52.366;5.980;2023-04-27T02:07:25;102043.88;;;0.78;66.93
69574;BME280;62840;52.366;5.980;2023-04-27T02:09:51;102053.59;;;0.76;67.24
69574;BME280;62840;52.366;5.980;2023-04-27T02:12:16;102056.16;;;0.77;67.22
69574;BME280;62840;52.366;5.980;2023-04-27T02:14:45;102051.81;;;0.76;67.38
69574;BME280;62840;52.366;5.980;2023-04-27T02:17:10;102051.00;;;0.74;67.24
69574;BME280;62840;52.366;5.980;2023-04-27T02:19:36;102055.38;;;0.74;67.38
69574;BME280;62840;52.366;5.980;2023-04-27T02:22:02;102057.13;;;0.73;67.32
69574;BME280;62840;52.366;5.980;2023-04-27T02:24:28;102050.13;;;0.74;67.25
69574;BME280;62840;52.366;5.980;2023-04-27T02:26:53;102060.63;;;0.74;67.07
69574;BME280;62840;52.366;5.980;2023-04-27T02:29:19;102052.75;;;0.74;67.22
69574;BME280;62840;52.366;5.980;2023-04-27T02:31:47;102053.66;;;0.73;67.47
69574;BME280;62840;52.366;5.980;2023-04-27T02:34:13;102058.97;;;0.70;67.36
69574;BME280;62840;52.366;5.980;2023-04-27T02:36:39;102051.09;;;0.70;67.36
69574;BME280;62840;52.366;5.980;2023-04-27T02:39:04;102046.72;;;0.69;67.31
69574;BME280;62840;52.366;5.980;2023-04-27T02:41:30;102041.47;;;0.69;67.34
69574;BME280;62840;52.366;5.980;2023-04-27T02:43:56;102037.97;;;0.70;67.08
69574;BME280;62840;52.366;5.980;2023-04-27T02:46:22;102040.63;;;0.66;67.28
69574;BME280;62840;52.366;5.980;2023-04-27T02:48:50;102046.81;;;0.65;67.40
69574;BME280;62840;52.366;5.980;2023-04-27T02:51:16;102045.94;;;0.65;67.46
69574;BME280;62840;52.366;5.980;2023-04-27T02:53:42;102043.31;;;0.65;67.59
69574;BME280;62840;52.366;5.980;2023-04-27T02:56:07;102039.84;;;0.64;67.54
69574;BME280;62840;52.366;5.980;2023-04-27T02:58:33;102025.88;;;0.62;67.49
69574;BME280;62840;52.366;5.980;2023-04-27T03:00:59;102032.00;;;0.63;67.58
69574;BME280;62840;52.366;5.980;2023-04-27T03:03:25;102029.34;;;0.64;67.41
69574;BME280;62840;52.366;5.980;2023-04-27T03:05:53;102031.06;;;0.64;67.59
69574;BME280;62840;52.366;5.980;2023-04-27T03:08:19;102029.34;;;0.64;67.61
69574;BME280;62840;52.366;5.980;2023-04-27T03:10:44;102013.63;;;0.61;67.49
69574;BME280;62840;52.366;5.980;2023-04-27T03:13:10;102022.44;;;0.60;67.50
69574;BME280;62840;52.366;5.980;2023-04-27T03:15:36;102022.44;;;0.60;67.83
69574;BME280;62840;52.366;5.980;2023-04-27T03:18:01;102024.13;;;0.61;67.71
69574;BME280;62840;52.366;5.980;2023-04-27T03:20:27;102018.84;;;0.64;68.03
69574;BME280;62840;52.366;5.980;2023-04-27T03:22:56;102017.00;;;0.66;68.11
69574;BME280;62840;52.366;5.980;2023-04-27T03:25:22;102022.25;;;0.66;67.87
69574;BME280;62840;52.366;5.980;2023-04-27T03:27:47;102010.06;;;0.65;67.78
69574;BME280;62840;52.366;5.980;2023-04-27T03:30:14;102016.16;;;0.66;67.90
69574;BME280;62840;52.366;5.980;2023-04-27T03:32:39;102025.81;;;0.65;67.71
69574;BME280;62840;52.366;5.980;2023-04-27T03:35:06;102017.06;;;0.65;67.83
69574;BME280;62840;52.366;5.980;2023-04-27T03:37:32;102021.47;;;0.64;68.01
69574;BME280;62840;52.366;5.980;2023-04-27T03:40:01;102025.88;;;0.62;67.81
69574;BME280;62840;52.366;5.980;2023-04-27T03:42:26;102025.94;;;0.59;67.89
69574;BME280;62840;52.366;5.980;2023-04-27T03:44:52;102029.47;;;0.58;67.90
69574;BME280;62840;52.366;5.980;2023-04-27T03:47:18;102031.25;;;0.56;68.01
69574;BME280;62840;52.366;5.980;2023-04-27T03:49:44;102034.75;;;0.55;67.85
69574;BME280;62840;52.366;5.980;2023-04-27T03:52:09;102040.09;;;0.52;68.01
69574;BME280;62840;52.366;5.980;2023-04-27T03:54:35;102034.91;;;0.49;68.06
69574;BME280;62840;52.366;5.980;2023-04-27T03:57:03;102033.16;;;0.48;67.80
69574;BME280;62840;52.366;5.980;2023-04-27T03:59:29;102034.97;;;0.46;67.83
69574;BME280;62840;52.366;5.980;2023-04-27T04:01:55;102032.41;;;0.44;67.91
69574;BME280;62840;52.366;5.980;2023-04-27T04:04:20;102038.56;;;0.42;68.11
69574;BME280;62840;52.366;5.980;2023-04-27T04:06:46;102041.19;;;0.42;67.92
69574;BME280;62840;52.366;5.980;2023-04-27T04:09:12;102036.84;;;0.39;68.08
69574;BME280;62840;52.366;5.980;2023-04-27T04:11:37;102048.28;;;0.37;67.99
69574;BME280;62840;52.366;5.980;2023-04-27T04:14:06;102043.94;;;0.36;68.13
69574;BME280;62840;52.366;5.980;2023-04-27T04:16:32;102053.53;;;0.37;68.31
69574;BME280;62840;52.366;5.980;2023-04-27T04:18:58;102050.91;;;0.37;68.12
69574;BME280;62840;52.366;5.980;2023-04-27T04:21:24;102050.91;;;0.37;68.08
69574;BME280;62840;52.366;5.980;2023-04-27T04:23:49;102053.53;;;0.37;67.86
69574;BME280;62840;52.366;5.980;2023-04-27T04:26:15;102048.34;;;0.34;67.83
69574;BME280;62840;52.366;5.980;2023-04-27T04:28:41;102052.69;;;0.35;68.04
69574;BME280;62840;52.366;5.980;2023-04-27T04:31:09;102050.97;;;0.34;68.04
69574;BME280;62840;52.366;5.980;2023-04-27T04:33:35;102050.97;;;0.34;67.96
69574;BME280;62840;52.366;5.980;2023-04-27T04:36:02;102054.47;;;0.33;68.15
69574;BME280;62840;52.366;5.980;2023-04-27T04:38:28;102057.94;;;0.35;68.18
69574;BME280;62840;52.366;5.980;2023-04-27T04:40:53;102056.16;;;0.37;68.23
69574;BME280;62840;52.366;5.980;2023-04-27T04:43:19;102061.41;;;0.37;68.18
69574;BME280;62840;52.366;5.980;2023-04-27T04:45:45;102069.31;;;0.35;68.34
69574;BME280;62840;52.366;5.980;2023-04-27T04:48:14;102068.41;;;0.38;68.16
69574;BME280;62840;52.366;5.980;2023-04-27T04:50:40;102075.34;;;0.39;68.17
69574;BME280;62840;52.366;5.980;2023-04-27T04:53:06;102079.72;;;0.40;68.33
69574;BME280;62840;52.366;5.980;2023-04-27T04:55:32;102085.84;;;0.40;68.17
69574;BME280;62840;52.366;5.980;2023-04-27T04:57:57;102083.19;;;0.42;68.13
69574;BME280;62840;52.366;5.980;2023-04-27T05:00:23;102078.75;;;0.44;68.11
69574;BME280;62840;52.366;5.980;2023-04-27T05:02:49;102073.44;;;0.47;68.12
69574;BME280;62840;52.366;5.980;2023-04-27T05:05:17;102064.66;;;0.48;68.39
69574;BME280;62840;52.366;5.980;2023-04-27T05:07:43;102064.63;;;0.51;68.43
69574;BME280;62840;52.366;5.980;2023-04-27T05:10:09;102069.78;;;0.54;68.20
69574;BME280;62840;52.366;5.980;2023-04-27T05:12:35;102078.50;;;0.56;68.58
69574;BME280;62840;52.366;5.980;2023-04-27T05:15:01;102072.34;;;0.57;68.55
69574;BME280;62840;52.366;5.980;2023-04-27T05:17:26;102074.00;;;0.61;68.58
69574;BME280;62840;52.366;5.980;2023-04-27T05:19:52;102079.22;;;0.64;68.45
69574;BME280;62840;52.366;5.980;2023-04-27T05:22:20;102076.59;;;0.64;68.53
69574;BME280;62840;52.366;5.980;2023-04-27T05:24:46;102080.03;;;0.66;68.37
69574;BME280;62840;52.366;5.980;2023-04-27T05:27:12;102080.91;;;0.67;68.38
69574;BME280;62840;52.366;5.980;2023-04-27T05:29:38;102079.06;;;0.71;68.36
69574;BME280;62840;52.366;5.980;2023-04-27T05:32:04;102085.97;;;0.75;68.55
69574;BME280;62840;52.366;5.980;2023-04-27T05:34:30;102083.34;;;0.76;68.44
69574;BME280;62840;52.366;5.980;2023-04-27T05:36:55;102086.75;;;0.80;68.44
69574;BME280;62840;52.366;5.980;2023-04-27T05:39:24;102087.56;;;0.82;68.43
69574;BME280;62840;52.366;5.980;2023-04-27T05:41:49;102086.63;;;0.86;68.48
69574;BME280;62840;52.366;5.980;2023-04-27T05:44:15;102080.47;;;0.87;68.60
69574;BME280;62840;52.366;5.980;2023-04-27T05:46:41;102095.25;;;0.91;68.80
69574;BME280;62840;52.366;5.980;2023-04-27T05:49:06;102103.91;;;0.96;68.81
69574;BME280;62840;52.366;5.980;2023-04-27T05:51:32;102102.03;;;1.01;68.86
69574;BME280;62840;52.366;5.980;2023-04-27T05:53:58;102093.19;;;1.05;68.72
69574;BME280;62840;52.366;5.980;2023-04-27T05:56:26;102098.34;;;1.10;68.78
69574;BME280;62840;52.366;5.980;2023-04-27T05:58:52;102096.50;;;1.14;68.78
69574;BME280;62840;52.366;5.980;2023-04-27T06:01:18;102102.44;;;1.22;68.70
69574;BME280;62840;52.366;5.980;2023-04-27T06:03:43;102099.69;;;1.26;68.81
69574;BME280;62840;52.366;5.980;2023-04-27T06:06:09;102096.09;;;1.32;68.84
69574;BME280;62840;52.366;5.980;2023-04-27T06:08:35;102095.91;;;1.38;68.66
69574;BME280;62840;52.366;5.980;2023-04-27T06:11:00;102094.06;;;1.43;68.92
69574;BME280;62840;52.366;5.980;2023-04-27T06:13:30;102094.78;;;1.50;68.67
69574;BME280;62840;52.366;5.980;2023-04-27T06:15:55;102091.09;;;1.57;68.85
69574;BME280;62840;52.366;5.980;2023-04-27T06:18:21;102095.31;;;1.63;68.80
69574;BME280;62840;52.366;5.980;2023-04-27T06:20:47;102095.16;;;1.69;68.88
69574;BME280;62840;52.366;5.980;2023-04-27T06:23:12;102098.47;;;1.77;68.88
69574;BME280;62840;52.366;5.980;2023-04-27T06:25:38;102095.66;;;1.83;68.94
69574;BME280;62840;52.366;5.980;2023-04-27T06:28:04;102094.63;;;1.90;68.91
69574;BME280;62840;52.366;5.980;2023-04-27T06:30:33;102094.38;;;2.00;68.75
69574;BME280;62840;52.366;5.980;2023-04-27T06:32:58;102102.84;;;2.11;68.33
69574;BME280;62840;52.366;5.980;2023-04-27T06:35:24;102106.06;;;2.22;68.42
69574;BME280;62840;52.366;5.980;2023-04-27T06:37:50;102105.78;;;2.31;68.66
69574;BME280;62840;52.366;5.980;2023-04-27T06:40:16;102112.50;;;2.42;68.68
69574;BME280;62840;52.366;5.980;2023-04-27T06:42:41;102106.91;;;2.54;69.08
69574;BME280;62840;52.366;5.980;2023-04-27T06:45:08;102106.53;;;2.66;68.94
69574;BME280;62840;52.366;5.980;2023-04-27T06:47:36;102115.84;;;2.78;68.95
69574;BME280;62840;52.366;5.980;2023-04-27T06:50:02;102107.63;;;2.89;68.83
69574;BME280;62840;52.366;5.980;2023-04-27T06:52:30;102103.72;;;3.02;68.45
69574;BME280;62840;52.366;5.980;2023-04-27T06:54:56;102100.66;;;3.16;68.59
69574;BME280;62840;52.366;5.980;2023-04-27T06:57:22;102097.56;;;3.30;68.58
69574;BME280;62840;52.366;5.980;2023-04-27T06:59:47;102095.38;;;3.44;68.43
69574;BME280;62840;52.366;5.980;2023-04-27T07:02:13;102103.69;;;3.58;68.25
69574;BME280;62840;52.366;5.980;2023-04-27T07:04:41;102092.63;;;3.74;68.19
69574;BME280;62840;52.366;5.980;2023-04-27T07:07:07;102091.28;;;3.87;68.01
69574;BME280;62840;52.366;5.980;2023-04-27T07:09:33;102096.94;;;4.01;67.62
69574;BME280;62840;52.366;5.980;2023-04-27T07:11:58;102100.06;;;4.13;67.44
69574;BME280;62840;52.366;5.980;2023-04-27T07:14:24;102096.06;;;4.26;67.15
69574;BME280;62840;52.366;5.980;2023-04-27T07:16:50;102095.63;;;4.38;67.31
69574;BME280;62840;52.366;5.980;2023-04-27T07:19:16;102090.88;;;4.48;67.21
69574;BME280;62840;52.366;5.980;2023-04-27T07:21:44;102093.97;;;4.59;67.36
69574;BME280;62840;52.366;5.980;2023-04-27T07:24:10;102090.13;;;4.68;66.93
69574;BME280;62840;52.366;5.980;2023-04-27T07:26:35;102087.00;;;4.80;66.78
69574;BME280;62840;52.366;5.980;2023-04-27T07:29:01;102091.84;;;4.93;66.59
69574;BME280;62840;52.366;5.980;2023-04-27T07:31:27;102091.38;;;5.05;66.41
69574;BME280;62840;52.366;5.980;2023-04-27T07:33:53;102097.03;;;5.18;66.01
69574;BME280;62840;52.366;5.980;2023-04-27T07:36:18;102092.19;;;5.29;65.99
69574;BME280;62840;52.366;5.980;2023-04-27T07:38:46;102091.75;;;5.40;66.02
69574;BME280;62840;52.366;5.980;2023-04-27T07:41:12;102099.38;;;5.47;65.46
69574;BME280;62840;52.366;5.980;2023-04-27T07:43:38;102099.06;;;5.55;65.61
69574;BME280;62840;52.366;5.980;2023-04-27T07:46:04;102102.28;;;5.62;65.51
69574;BME280;62840;52.366;5.980;2023-04-27T07:48:29;102106.34;;;5.71;65.06
69574;BME280;62840;52.366;5.980;2023-04-27T07:50:55;102095.44;;;5.78;65.00
69574;BME280;62840;52.366;5.980;2023-04-27T07:53:21;102104.78;;;5.87;64.85
69574;BME280;62840;52.366;5.980;2023-04-27T07:55:49;102098.31;;;5.94;64.53
69574;BME280;62840;52.366;5.980;2023-04-27T07:58:15;102100.69;;;6.00;64.67
69574;BME280;62840;52.366;5.980;2023-04-27T08:00:41;102096.75;;;6.09;64.63
69574;BME280;62840;52.366;5.980;2023-04-27T08:03:06;102100.78;;;6.18;64.58
69574;BME280;62840;52.366;5.980;2023-04-27T08:05:32;102097.81;;;6.25;64.15
69574;BME280;62840;52.366;5.980;2023-04-27T08:07:58;102104.50;;;6.34;64.07
69574;BME280;62840;52.366;5.980;2023-04-27T08:10:24;102105.16;;;6.39;63.88
69574;BME280;62840;52.366;5.980;2023-04-27T08:12:52;102110.03;;;6.48;63.85
69574;BME280;62840;52.366;5.980;2023-04-27T08:15:18;102104.47;;;6.55;63.78
69574;BME280;62840;52.366;5.980;2023-04-27T08:17:44;102103.25;;;6.62;63.77
69574;BME280;62840;52.366;5.980;2023-04-27T08:20:10;102095.88;;;6.68;63.74
69574;BME280;62840;52.366;5.980;2023-04-27T08:22:36;102106.13;;;6.76;63.48
69574;BME280;62840;52.366;5.980;2023-04-27T08:25:03;102100.38;;;6.85;63.42
69574;BME280;62840;52.366;5.980;2023-04-27T08:27:29;102100.91;;;6.93;63.36
69574;BME280;62840;52.366;5.980;2023-04-27T08:29:58;102104.06;;;7.02;63.28
69574;BME280;62840;52.366;5.980;2023-04-27T08:32:23;102109.84;;;7.10;62.86
69574;BME280;62840;52.366;5.980;2023-04-27T08:34:49;102103.16;;;7.20;62.98
69574;BME280;62840;52.366;5.980;2023-04-27T08:37:15;102103.50;;;7.31;63.02
69574;BME280;62840;52.366;5.980;2023-04-27T08:39:41;102112.75;;;7.42;62.84
69574;BME280;62840;52.366;5.980;2023-04-27T08:42:10;102099.03;;;7.51;62.72
69574;BME280;62840;52.366;5.980;2023-04-27T08:44:37;102102.19;;;7.59;62.73
69574;BME280;62840;52.366;5.980;2023-04-27T08:47:06;102090.16;;;7.69;62.36
69574;BME280;62840;52.366;5.980;2023-04-27T08:49:32;102100.31;;;7.79;61.92
69574;BME280;62840;52.366;5.980;2023-04-27T08:51:57;102098.13;;;7.87;61.53
69574;BME280;62840;52.366;5.980;2023-04-27T08:54:23;102085.31;;;7.95;61.40
69574;BME280;62840;52.366;5.980;2023-04-27T08:56:49;102092.88;;;8.03;61.06
69574;BME280;62840;52.366;5.980;2023-04-27T08:59:15;102098.72;;;8.09;61.07
69574;BME280;62840;52.366;5.980;2023-04-27T09:01:43;102099.97;;;8.20;60.60
69574;BME280;62840;52.366;5.980;2023-04-27T09:04:11;102087.16;;;8.28;60.13
69574;BME280;62840;52.366;5.980;2023-04-27T09:06:37;102086.81;;;8.34;60.03
69574;BME280;62840;52.366;5.980;2023-04-27T09:09:03;102087.34;;;8.41;59.80
69574;BME280;62840;52.366;5.980;2023-04-27T09:11:30;102077.22;;;8.47;59.31
69574;BME280;62840;52.366;5.980;2023-04-27T09:13:58;102090.97;;;8.55;59.31
69574;BME280;62840;52.366;5.980;2023-04-27T09:16:27;102083.22;;;8.68;59.52
69574;BME280;62840;52.366;5.980;2023-04-27T09:18:55;102083.47;;;8.79;59.35
69574;BME280;62840;52.366;5.980;2023-04-27T09:21:25;102092.56;;;8.91;58.75
69574;BME280;62840;52.366;5.980;2023-04-27T09:23:53;102100.97;;;8.99;58.34
69574;BME280;62840;52.366;5.980;2023-04-27T09:26:20;102097.97;;;9.06;58.44
69574;BME280;62840;52.366;5.980;2023-04-27T09:28:49;102096.84;;;9.10;57.92
69574;BME280;62840;52.366;5.980;2023-04-27T09:31:16;102089.47;;;9.15;57.63
69574;BME280;62840;52.366;5.980;2023-04-27T09:33:43;102083.81;;;9.21;57.67
69574;BME280;62840;52.366;5.980;2023-04-27T09:36:09;102085.16;;;9.28;57.37
69574;BME280;62840;52.366;5.980;2023-04-27T09:38:38;102084.66;;;9.37;57.38
69574;BME280;62840;52.366;5.980;2023-04-27T09:41:04;102069.19;;;9.44;56.71
69574;BME280;62840;52.366;5.980;2023-04-27T09:43:32;102061.69;;;9.51;56.75
69574;BME280;62840;52.366;5.980;2023-04-27T09:45:58;102058.50;;;9.60;56.54
69574;BME280;62840;52.366;5.980;2023-04-27T09:48:24;102057.94;;;9.69;56.26
69574;BME280;62840;52.366;5.980;2023-04-27T09:50:51;102053.09;;;9.76;56.07
69574;BME280;62840;52.366;5.980;2023-04-27T09:53:20;102057.03;;;9.84;55.95
69574;BME280;62840;52.366;5.980;2023-04-27T09:56:02;102056.47;;;9.94;55.75
69574;BME280;62840;52.366;5.980;2023-04-27T09:58:57;102057.16;;;9.97;54.59
69574;BME280;62840;52.366;5.980;2023-04-27T10:01:44;102050.97;;;9.97;54.99
69574;BME280;62840;52.366;5.980;2023-04-27T10:04:28;102049.09;;;9.99;54.58
69574;BME280;62840;52.366;5.980;2023-04-27T10:07:10;102046.22;;;10.02;54.58
69574;BME280;62840;52.366;5.980;2023-04-27T10:09:40;102046.78;;;10.07;54.93
69574;BME280;62840;52.366;5.980;2023-04-27T10:12:17;102048.13;;;10.14;53.79
69574;BME280;62840;52.366;5.980;2023-04-27T10:14:49;102048.78;;;10.18;53.57
69574;BME280;62840;52.366;5.980;2023-04-27T10:17:16;102048.72;;;10.19;53.82
69574;BME280;62840;52.366;5.980;2023-04-27T10:19:52;102040.50;;;10.22;53.52
69574;BME280;62840;52.366;5.980;2023-04-27T10:22:21;102036.63;;;10.28;53.79
69574;BME280;62840;52.366;5.980;2023-04-27T10:24:48;102036.97;;;10.36;53.62
69574;BME280;62840;52.366;5.980;2023-04-27T10:27:18;102032.31;;;10.40;53.64
69574;BME280;62840;52.366;5.980;2023-04-27T10:29:45;102035.75;;;10.42;53.34
69574;BME280;62840;52.366;5.980;2023-04-27T10:32:17;102037.44;;;10.43;53.32
69574;BME280;62840;52.366;5.980;2023-04-27T10:34:44;102038.78;;;10.50;53.32
69574;BME280;62840;52.366;5.980;2023-04-27T10:37:10;102040.31;;;10.54;52.47
69574;BME280;62840;52.366;5.980;2023-04-27T10:39:37;102040.84;;;10.59;52.86
69574;BME280;62840;52.366;5.980;2023-04-27T10:42:05;102036.88;;;10.66;52.98
69574;BME280;62840;52.366;5.980;2023-04-27T10:44:36;102042.56;;;10.75;52.81
69574;BME280;62840;52.366;5.980;2023-04-27T10:47:12;102042.25;;;10.79;52.12
69574;BME280;62840;52.366;5.980;2023-04-27T10:49:39;102039.41;;;10.82;51.85
69574;BME280;62840;52.366;5.980;2023-04-27T10:52:05;102047.28;;;10.84;51.96
69574;BME280;62840;52.366;5.980;2023-04-27T10:54:31;102033.00;;;10.85;51.98
69574;BME280;62840;52.366;5.980;2023-04-27T10:57:01;102043.50;;;10.88;52.01
69574;BME280;62840;52.366;5.980;2023-04-27T10:59:28;102036.25;;;10.90;52.06
69574;BME280;62840;52.366;5.980;2023-04-27T11:01:57;102039.47;;;10.95;52.06
69574;BME280;62840;52.366;5.980;2023-04-27T11:04:22;102039.94;;;11.02;51.61
69574;BME280;62840;52.366;5.980;2023-04-27T11:06:48;102039.53;;;11.08;51.73
69574;BME280;62840;52.366;5.980;2023-04-27T11:09:24;102037.41;;;11.13;51.03
69574;BME280;62840;52.366;5.980;2023-04-27T11:11:50;102032.75;;;11.17;51.24
69574;BME280;62840;52.366;5.980;2023-04-27T11:14:18;102025.28;;;11.22;51.52
69574;BME280;62840;52.366;5.980;2023-04-27T11:16:45;102027.75;;;11.25;50.83
69574;BME280;62840;52.366;5.980;2023-04-27T11:19:14;102029.16;;;11.31;51.05
69574;BME280;62840;52.366;5.980;2023-04-27T11:21:40;102024.91;;;11.41;51.33
69574;BME280;62840;52.366;5.980;2023-04-27T11:24:07;102018.06;;;11.49;50.73
69574;BME280;62840;52.366;5.980;2023-04-27T11:26:33;102012.13;;;11.59;50.92
69574;BME280;62840;52.366;5.980;2023-04-27T11:29:01;102020.28;;;11.70;50.66
69574;BME280;62840;52.366;5.980;2023-04-27T11:31:38;102014.47;;;11.76;49.66
69574;BME280;62840;52.366;5.980;2023-04-27T11:34:05;102008.72;;;11.82;49.81
69574;BME280;62840;52.366;5.980;2023-04-27T11:36:34;102009.16;;;11.89;49.96
69574;BME280;62840;52.366;5.980;2023-04-27T11:38:59;102005.94;;;11.97;49.82
69574;BME280;62840;52.366;5.980;2023-04-27T11:41:32;102007.94;;;12.06;49.77
69574;BME280;62840;52.366;5.980;2023-04-27T11:44:03;102004.66;;;12.15;49.44
69574;BME280;62840;52.366;5.980;2023-04-27T11:46:29;102005.94;;;12.22;48.99
69574;BME280;62840;52.366;5.980;2023-04-27T11:49:00;101999.09;;;12.31;48.89
69574;BME280;62840;52.366;5.980;2023-04-27T11:51:28;102004.88;;;12.38;48.97
69574;BME280;62840;52.366;5.980;2023-04-27T11:54:00;102001.72;;;12.44;48.33
69574;BME280;62840;52.366;5.980;2023-04-27T11:56:33;102000.66;;;12.46;47.31
69574;BME280;62840;52.366;5.980;2023-04-27T11:58:59;102006.13;;;12.45;47.59
69574;BME280;62840;52.366;5.980;2023-04-27T12:01:25;102001.72;;;12.44;48.10
69574;BME280;62840;52.366;5.980;2023-04-27T12:03:51;102009.31;;;12.50;47.76
69574;BME280;62840;52.366;5.980;2023-04-27T12:06:23;102000.56;;;12.48;47.34
69574;BME280;62840;52.366;5.980;2023-04-27T12:08:49;102004.88;;;12.38;47.58
69574;BME280;62840;52.366;5.980;2023-04-27T12:11:17;101997.03;;;12.35;48.25
69574;BME280;62840;52.366;5.980;2023-04-27T12:13:43;101995.03;;;12.38;47.63
69574;BME280;62840;52.366;5.980;2023-04-27T12:16:09;101985.91;;;12.41;47.90
69574;BME280;62840;52.366;5.980;2023-04-27T12:18:35;101988.91;;;12.49;48.35
69574;BME280;62840;52.366;5.980;2023-04-27T12:21:00;101977.78;;;12.66;48.23
69574;BME280;62840;52.366;5.980;2023-04-27T12:23:26;101987.63;;;12.79;47.85
69574;BME280;62840;52.366;5.980;2023-04-27T12:25:52;101979.41;;;12.93;48.14
69574;BME280;62840;52.366;5.980;2023-04-27T12:28:20;101981.94;;;13.07;48.38
69574;BME280;62840;52.366;5.980;2023-04-27T12:30:46;101974.78;;;13.19;47.43
69574;BME280;62840;52.366;5.980;2023-04-27T12:33:11;101975.38;;;13.23;47.12
69574;BME280;62840;52.366;5.980;2023-04-27T12:35:37;101971.25;;;13.19;46.95
69574;BME280;62840;52.366;5.980;2023-04-27T12:38:03;101967.84;;;13.16;46.45
69574;BME280;62840;52.366;5.980;2023-04-27T12:40:29;101972.44;;;13.14;47.27
69574;BME280;62840;52.366;5.980;2023-04-27T12:42:54;101966.84;;;13.18;47.24
69574;BME280;62840;52.366;5.980;2023-04-27T12:45:23;101970.03;;;13.23;46.50
69574;BME280;62840;52.366;5.980;2023-04-27T12:47:48;101954.34;;;13.29;47.18
69574;BME280;62840;52.366;5.980;2023-04-27T12:50:14;101954.50;;;13.39;46.88
69574;BME280;62840;52.366;5.980;2023-04-27T12:52:40;101951.22;;;13.47;46.74
69574;BME280;62840;52.366;5.980;2023-04-27T12:55:06;101955.50;;;13.49;46.11